createdAt,value
2023-11-24T00:00:33.611Z,94678.63
2023-11-24T00:03:00.946Z,94672.84
2023-11-24T00:05:28.261Z,94666.72
2023-11-24T00:07:55.534Z,94656.47
2023-11-24T00:10:23.088Z,94654.19
2023-11-24T00:12:50.565Z,94659.28
2023-11-24T00:15:17.886Z,94655.69
2023-11-24T00:17:45.090Z,94635.25
2023-11-24T00:20:15.377Z,94653.56
2023-11-24T00:22:42.762Z,94643.31
2023-11-24T00:25:14.077Z,94625.31
2023-11-24T00:27:41.663Z,94632.09
2023-11-24T00:30:09.005Z,94621.47
2023-11-24T00:32:36.589Z,94611.28
2023-11-24T00:35:07.543Z,94616.50
2023-11-24T00:37:34.949Z,94609.44
2023-11-24T00:40:04.085Z,94605.75
2023-11-24T00:42:31.526Z,94610.34
2023-11-24T00:44:58.779Z,94601.16
2023-11-24T00:47:27.473Z,94610.72
2023-11-24T00:49:55.301Z,94577.75
2023-11-24T00:52:22.574Z,94602.19
2023-11-24T00:54:49.747Z,94576.84
2023-11-24T00:57:16.928Z,94569.56
2023-11-24T00:59:45.614Z,94592.75
2023-11-24T01:02:15.573Z,94586.66
2023-11-24T01:04:42.918Z,94548.47
2023-11-24T01:07:11.162Z,94558.06
2023-11-24T01:09:38.502Z,94565.91
2023-11-24T01:12:06.390Z,94560.38
2023-11-24T01:14:33.668Z,94535.94
2023-11-24T01:17:01.590Z,94553.47
2023-11-24T01:19:29.295Z,94543.88
2023-11-24T01:21:56.626Z,94550.00
2023-11-24T01:24:23.877Z,94539.03
2023-11-24T01:26:51.215Z,94535.94
2023-11-24T01:29:18.553Z,94504.13
2023-11-24T01:31:46.012Z,94516.19
2023-11-24T01:34:16.007Z,94514.03
2023-11-24T01:36:46.092Z,94498.47
2023-11-24T01:39:14.053Z,94512.28
2023-11-24T01:41:41.713Z,94510.78
2023-11-24T01:44:09.863Z,94467.00
2023-11-24T01:46:38.534Z,94501.06
2023-11-24T01:49:06.710Z,94486.56
2023-11-24T01:51:34.703Z,94458.00
2023-11-24T01:54:02.134Z,94464.28
2023-11-24T01:56:32.199Z,94477.47
2023-11-24T01:59:00.371Z,94459.38
2023-11-24T02:01:30.521Z,94453.59
2023-11-24T02:03:57.867Z,94458.81
2023-11-24T02:06:25.369Z,94434.88
2023-11-24T02:08:52.714Z,94450.56
2023-11-24T02:11:20.097Z,94454.97
2023-11-24T02:13:51.098Z,94434.41
2023-11-24T02:16:19.861Z,94456.38
2023-11-24T02:18:47.873Z,94436.78
2023-11-24T02:21:15.346Z,94435.44
2023-11-24T02:23:43.892Z,94427.09
2023-11-24T02:26:11.531Z,94423.97
2023-11-24T02:28:38.866Z,94391.25
2023-11-24T02:31:08.329Z,94391.56
2023-11-24T02:33:35.671Z,94395.03
2023-11-24T02:36:07.161Z,94397.91
2023-11-24T02:38:34.664Z,94388.13
2023-11-24T02:41:02.585Z,94387.06
2023-11-24T02:43:30.045Z,94388.56
2023-11-24T02:45:57.213Z,94388.91
2023-11-24T02:48:24.631Z,94374.34
2023-11-24T02:50:51.988Z,94381.97
2023-11-24T02:53:19.430Z,94373.63
2023-11-24T02:55:46.649Z,94390.16
2023-11-24T02:58:13.900Z,94375.53
2023-11-24T03:00:41.041Z,94367.75
2023-11-24T03:03:08.820Z,94353.72
2023-11-24T03:05:36.278Z,94371.22
2023-11-24T03:08:04.500Z,94366.06
2023-11-24T03:10:32.006Z,94367.75
2023-11-24T03:12:59.222Z,94356.25
2023-11-24T03:15:27.236Z,94372.84
2023-11-24T03:17:54.578Z,94367.69
2023-11-24T03:20:22.776Z,94329.72
2023-11-24T03:22:49.941Z,94339.78
2023-11-24T03:25:17.407Z,94333.03
2023-11-24T03:27:45.743Z,94335.66
2023-11-24T03:30:14.613Z,94320.63
2023-11-24T03:32:42.273Z,94318.72
2023-11-24T03:35:09.867Z,94307.38
2023-11-24T03:37:38.325Z,94285.97
2023-11-24T03:40:06.862Z,94284.44
2023-11-24T03:42:34.134Z,94290.09
2023-11-24T03:45:02.559Z,94295.78
2023-11-24T03:47:33.763Z,94282.44
2023-11-24T03:50:01.171Z,94276.94
2023-11-24T03:52:34.159Z,94274.31
2023-11-24T03:55:01.568Z,94280.66
2023-11-24T03:57:31.276Z,94274.47
2023-11-24T03:59:59.547Z,94275.75
2023-11-24T04:02:26.809Z,94275.50
2023-11-24T04:04:55.275Z,94265.53
2023-11-24T04:07:22.311Z,94275.50
2023-11-24T04:09:49.739Z,94271.50
2023-11-24T04:12:16.883Z,94259.03
2023-11-24T04:14:44.108Z,94260.56
2023-11-24T04:17:12.010Z,94274.88
2023-11-24T04:19:39.563Z,94219.47
2023-11-24T04:22:07.700Z,94250.41
2023-11-24T04:24:34.928Z,94282.03
2023-11-24T04:27:02.972Z,94278.31
2023-11-24T04:29:31.891Z,94276.81
2023-11-24T04:31:59.001Z,94255.88
2023-11-24T04:34:26.540Z,94254.28
2023-11-24T04:36:55.160Z,94278.00
2023-11-24T04:39:22.510Z,94219.56
2023-11-24T04:41:49.793Z,94288.50
2023-11-24T04:44:16.839Z,94280.66
2023-11-24T04:46:44.209Z,94278.25
2023-11-24T04:49:11.877Z,94273.97
2023-11-24T04:51:39.294Z,94231.84
2023-11-24T04:54:06.521Z,94265.19
2023-11-24T04:56:34.608Z,94267.25
2023-11-24T04:59:01.751Z,94275.97
2023-11-24T05:01:30.529Z,94256.53
2023-11-24T05:04:00.612Z,94265.31
2023-11-24T05:06:28.185Z,94264.91
2023-11-24T05:08:55.422Z,94262.63
2023-11-24T05:11:22.875Z,94232.72
2023-11-24T05:13:50.562Z,94245.91
2023-11-24T05:16:18.660Z,94245.50
2023-11-24T05:18:45.860Z,94248.88
2023-11-24T05:21:13.197Z,94242.34
2023-11-24T05:23:40.407Z,94225.28
2023-11-24T05:26:08.424Z,94227.38
2023-11-24T05:28:35.761Z,94203.56
2023-11-24T05:31:05.135Z,94231.34
2023-11-24T05:33:34.281Z,94227.66
2023-11-24T05:36:01.746Z,94207.38
2023-11-24T05:38:29.043Z,94184.16
2023-11-24T05:40:56.183Z,94219.25
2023-11-24T05:43:23.316Z,94209.44
2023-11-24T05:45:50.569Z,94179.75
2023-11-24T05:48:18.172Z,94195.59
2023-11-24T05:50:45.425Z,94208.09
2023-11-24T05:53:12.773Z,94216.53
2023-11-24T05:55:40.444Z,94219.94
2023-11-24T05:58:07.771Z,94202.28
2023-11-24T06:00:35.018Z,94210.19
2023-11-24T06:03:02.333Z,94215.06
2023-11-24T06:05:31.335Z,94226.25
2023-11-24T06:07:59.349Z,94210.22
2023-11-24T06:10:26.551Z,94235.44
2023-11-24T06:12:53.828Z,94223.38
2023-11-24T06:15:21.268Z,94221.97
2023-11-24T06:17:49.833Z,94207.44
2023-11-24T06:20:17.756Z,94220.50
2023-11-24T06:22:45.888Z,94216.88
2023-11-24T06:25:16.220Z,94218.53
2023-11-24T06:27:45.693Z,94205.25
2023-11-24T06:30:13.685Z,94211.63
2023-11-24T06:32:41.077Z,94184.78
2023-11-24T06:35:08.655Z,94188.38
2023-11-24T06:37:35.896Z,94211.97
2023-11-24T06:40:06.624Z,94210.09
2023-11-24T06:42:33.814Z,94207.19
2023-11-24T06:45:01.360Z,94200.44
2023-11-24T06:47:29.052Z,94197.41
2023-11-24T06:49:57.133Z,94189.78
2023-11-24T06:52:24.686Z,94178.91
2023-11-24T06:54:51.949Z,94182.88
2023-11-24T06:57:19.133Z,94166.47
2023-11-24T06:59:46.189Z,94163.13
2023-11-24T07:02:13.432Z,94153.56
2023-11-24T07:04:41.142Z,94157.97
2023-11-24T07:07:08.426Z,94146.78
2023-11-24T07:09:35.564Z,94156.06
2023-11-24T07:12:03.658Z,94162.91
2023-11-24T07:14:30.957Z,94138.16
2023-11-24T07:16:58.247Z,94147.94
2023-11-24T07:19:25.574Z,94133.88
2023-11-24T07:21:52.884Z,94135.88
2023-11-24T07:24:20.012Z,94138.22
2023-11-24T07:26:47.210Z,94132.19
2023-11-24T07:29:15.583Z,94144.44
2023-11-24T07:31:42.802Z,94122.84
2023-11-24T07:34:11.975Z,94137.53
2023-11-24T07:36:39.268Z,94129.28
2023-11-24T07:39:07.445Z,94139.84
2023-11-24T07:41:34.671Z,94118.56
2023-11-24T07:44:03.061Z,94122.41
2023-11-24T07:46:30.317Z,94144.47
2023-11-24T07:48:58.542Z,94146.81
2023-11-24T07:51:25.781Z,94133.97
2023-11-24T07:53:52.944Z,94134.84
2023-11-24T07:56:22.862Z,94118.84
2023-11-24T07:58:50.104Z,94130.38
2023-11-24T08:01:17.582Z,94120.22
2023-11-24T08:03:45.434Z,94098.13
2023-11-24T08:06:12.811Z,94105.63
2023-11-24T08:08:40.051Z,94120.25
2023-11-24T08:11:07.148Z,94113.06
2023-11-24T08:13:34.503Z,94115.72
2023-11-24T08:16:02.321Z,94107.16
2023-11-24T08:18:29.847Z,94097.81
2023-11-24T08:20:59.313Z,94105.00
2023-11-24T08:23:26.417Z,94096.47
2023-11-24T08:25:53.774Z,94087.44
2023-11-24T08:28:20.793Z,94089.59
2023-11-24T08:30:50.276Z,94070.91
2023-11-24T08:33:17.845Z,94079.97
2023-11-24T08:35:44.961Z,94065.84
2023-11-24T08:38:13.172Z,94068.25
2023-11-24T08:40:40.455Z,94063.44
2023-11-24T08:43:07.708Z,94049.03
2023-11-24T08:45:35.701Z,94043.97
2023-11-24T08:48:03.167Z,94052.78
2023-11-24T08:50:30.331Z,94045.56
2023-11-24T08:52:57.397Z,94046.38
2023-11-24T08:55:24.591Z,94029.28
2023-11-24T08:57:52.639Z,94037.53
2023-11-24T09:00:39.485Z,94026.31
2023-11-24T09:03:06.763Z,94026.03
2023-11-24T09:05:34.621Z,94022.84
2023-11-24T09:08:01.826Z,94008.16
2023-11-24T09:10:29.935Z,94021.22
2023-11-24T09:12:57.262Z,94011.09
2023-11-24T09:15:25.417Z,94015.38
2023-11-24T09:17:52.831Z,94001.00
2023-11-24T09:20:20.096Z,94005.50
2023-11-24T09:22:47.250Z,93984.38
2023-11-24T09:25:16.941Z,93987.09
2023-11-24T09:27:46.953Z,93997.19
2023-11-24T09:30:14.412Z,93970.59
2023-11-24T09:32:44.315Z,93971.66
2023-11-24T09:35:12.693Z,93960.19
2023-11-24T09:37:39.983Z,93960.97
2023-11-24T09:40:17.515Z,93962.00
2023-11-24T09:42:47.262Z,93951.38
2023-11-24T09:45:19.175Z,93942.78
2023-11-24T09:47:51.803Z,93937.16
2023-11-24T09:50:25.210Z,93928.91
2023-11-24T09:52:58.750Z,93903.06
2023-11-24T09:55:28.216Z,93903.28
2023-11-24T09:57:58.029Z,93898.75
2023-11-24T10:00:27.497Z,93912.88
2023-11-24T10:03:00.181Z,93913.66
2023-11-24T10:05:27.892Z,93898.22
2023-11-24T10:07:56.353Z,93896.63
2023-11-24T10:10:25.611Z,93896.63
2023-11-24T10:12:55.070Z,93882.56
2023-11-24T10:15:22.562Z,93878.00
2023-11-24T10:17:50.298Z,93871.91
2023-11-24T10:20:30.111Z,93868.69
2023-11-24T10:23:00.109Z,93879.84
2023-11-24T10:25:30.262Z,93863.91
2023-11-24T10:28:00.779Z,93860.66
2023-11-24T10:30:27.936Z,93852.41
2023-11-24T10:32:57.773Z,93838.91
2023-11-24T10:35:26.240Z,93840.72
2023-11-24T10:37:54.077Z,93842.59
2023-11-24T10:40:22.264Z,93832.50
2023-11-24T10:42:51.786Z,93824.50
2023-11-24T10:45:22.542Z,93825.31
2023-11-24T10:48:01.536Z,93812.19
2023-11-24T10:50:30.651Z,93803.94
2023-11-24T10:53:16.353Z,93811.03
2023-11-24T10:55:46.717Z,93801.94
2023-11-24T10:58:14.738Z,93739.16
2023-11-24T11:00:42.204Z,93761.25
2023-11-24T11:03:13.743Z,93788.34
2023-11-24T11:06:18.509Z,93787.41
2023-11-24T11:08:58.406Z,93773.31
2023-11-24T11:11:40.960Z,93767.97
2023-11-24T11:14:09.561Z,93723.41
2023-11-24T11:16:38.716Z,93754.63
2023-11-24T11:19:35.018Z,93757.72
2023-11-24T11:22:02.849Z,93756.31
2023-11-24T11:24:30.391Z,93742.25
2023-11-24T11:26:59.318Z,93735.94
2023-11-24T11:29:30.144Z,93732.59
2023-11-24T11:31:57.847Z,93717.34
2023-11-24T11:34:33.225Z,93709.81
2023-11-24T11:37:13.294Z,93708.19
2023-11-24T11:39:55.232Z,93708.16
2023-11-24T11:42:33.202Z,93716.44
2023-11-24T11:45:11.791Z,93715.50
2023-11-24T11:48:00.081Z,93694.91
2023-11-24T11:50:27.373Z,93705.41
2023-11-24T11:52:59.242Z,93711.63
2023-11-24T11:55:26.891Z,93678.56
2023-11-24T11:57:55.435Z,93675.47
2023-11-24T12:00:26.890Z,93670.69
2023-11-24T12:02:56.368Z,93679.28
2023-11-24T12:05:24.572Z,93676.34
2023-11-24T12:07:54.994Z,93666.50
2023-11-24T12:10:22.417Z,93658.69
2023-11-24T12:12:50.206Z,93669.00
2023-11-24T12:15:19.145Z,93665.19
2023-11-24T12:17:47.222Z,93656.75
2023-11-24T12:20:16.355Z,93603.28
2023-11-24T12:22:45.077Z,93639.66
2023-11-24T12:25:14.354Z,93628.56
2023-11-24T12:27:45.795Z,93608.34
2023-11-24T12:30:16.209Z,93612.34
2023-11-24T12:32:44.532Z,93605.09
2023-11-24T12:35:12.673Z,93610.63
2023-11-24T12:37:45.581Z,93592.34
2023-11-24T12:40:13.283Z,93599.97
2023-11-24T12:42:44.645Z,93589.28
2023-11-24T12:45:13.811Z,93588.66
2023-11-24T12:47:42.611Z,93586.28
2023-11-24T12:50:14.821Z,93566.50
2023-11-24T12:52:46.932Z,93512.00
2023-11-24T12:55:14.358Z,93532.88
2023-11-24T12:57:45.432Z,93531.47
2023-11-24T13:00:18.059Z,93537.44
2023-11-24T13:02:46.638Z,93544.41
2023-11-24T13:05:14.907Z,93531.25
2023-11-24T13:07:43.070Z,93548.56
2023-11-24T13:10:12.701Z,93527.78
2023-11-24T13:12:40.764Z,93540.16
2023-11-24T13:15:09.176Z,93539.63
2023-11-24T13:17:37.134Z,93517.94
2023-11-24T13:20:05.155Z,93508.06
2023-11-24T13:22:35.398Z,93492.16
2023-11-24T13:25:02.922Z,93483.47
2023-11-24T13:27:32.936Z,93514.56
2023-11-24T13:30:00.854Z,93496.31
2023-11-24T13:32:29.642Z,93491.66
2023-11-24T13:34:58.033Z,93500.50
2023-11-24T13:37:25.253Z,93504.84
2023-11-24T13:39:52.720Z,93496.78
2023-11-24T13:42:21.506Z,93493.19
2023-11-24T13:44:49.280Z,93480.28
2023-11-24T13:47:17.574Z,93470.25
2023-11-24T13:49:47.635Z,93485.88
2023-11-24T13:52:16.182Z,93478.78
2023-11-24T13:54:43.702Z,93479.09
2023-11-24T13:57:11.151Z,93464.69
2023-11-24T13:59:38.309Z,93465.53
2023-11-24T14:02:06.894Z,93447.44
2023-11-24T14:04:34.850Z,93444.84
2023-11-24T14:07:02.164Z,93466.91
2023-11-24T14:09:41.138Z,93457.03
2023-11-24T14:12:10.591Z,93467.06
2023-11-24T14:14:38.432Z,93454.19
2023-11-24T14:17:05.612Z,93428.13
2023-11-24T14:19:32.816Z,93438.63
2023-11-24T14:22:01.977Z,93435.16
2023-11-24T14:24:29.234Z,93428.59
2023-11-24T14:26:56.767Z,93425.94
2023-11-24T14:29:24.576Z,93414.38
2023-11-24T14:31:51.660Z,93414.44
2023-11-24T14:34:20.356Z,93423.31
2023-11-24T14:36:47.784Z,93421.13
2023-11-24T14:39:27.151Z,93413.88
2023-11-24T14:41:58.704Z,93399.50
2023-11-24T14:44:26.110Z,93392.38
2023-11-24T14:46:53.660Z,93422.66
2023-11-24T14:49:21.043Z,93387.72
2023-11-24T14:51:49.900Z,93396.59
2023-11-24T14:54:19.434Z,93396.94
2023-11-24T14:56:49.383Z,93330.13
2023-11-24T14:59:18.098Z,93372.50
2023-11-24T15:01:45.644Z,93386.09
2023-11-24T15:04:20.128Z,93399.88
2023-11-24T15:06:52.156Z,93392.41
2023-11-24T15:09:20.411Z,93394.53
2023-11-24T15:11:53.607Z,93387.63
2023-11-24T15:14:33.608Z,93379.63
2023-11-24T15:17:17.203Z,93372.44
2023-11-24T15:19:47.005Z,93385.06
2023-11-24T15:22:20.379Z,93376.78
2023-11-24T15:24:54.621Z,93372.22
2023-11-24T15:27:22.154Z,93377.94
2023-11-24T15:29:50.204Z,93373.31
2023-11-24T15:32:21.170Z,93338.81
2023-11-24T15:34:48.499Z,93369.06
2023-11-24T15:37:15.566Z,93363.63
2023-11-24T15:39:44.035Z,93369.03
2023-11-24T15:42:15.997Z,93351.47
2023-11-24T15:44:45.200Z,93359.31
2023-11-24T15:47:12.559Z,93358.88
2023-11-24T15:49:43.446Z,93351.09
2023-11-24T15:52:14.762Z,93349.53
2023-11-24T15:54:43.815Z,93351.66
2023-11-24T15:57:11.418Z,93337.13
2023-11-24T15:59:44.232Z,93328.72
2023-11-24T16:02:15.631Z,93341.63
2023-11-24T16:04:46.495Z,93343.69
2023-11-24T16:07:18.735Z,93349.44
2023-11-24T16:09:46.787Z,93343.22
2023-11-24T16:12:15.417Z,93336.06
2023-11-24T16:14:45.130Z,93341.38
2023-11-24T16:17:13.748Z,93312.69
2023-11-24T16:19:41.291Z,93315.66
2023-11-24T16:22:11.732Z,93318.00
2023-11-24T16:24:41.071Z,93317.00
2023-11-24T16:27:10.159Z,93314.75
2023-11-24T16:29:37.209Z,93303.53
2023-11-24T16:32:05.015Z,93303.66
2023-11-24T16:34:32.348Z,93319.28
2023-11-24T16:37:00.155Z,93297.91
2023-11-24T16:39:30.300Z,93298.75
2023-11-24T16:41:58.604Z,93305.66
2023-11-24T16:44:26.373Z,93305.78
2023-11-24T16:46:59.164Z,93297.34
2023-11-24T16:49:29.339Z,93294.19
2023-11-24T16:51:56.769Z,93281.94
2023-11-24T16:54:24.158Z,93293.41
2023-11-24T16:56:51.479Z,93273.25
2023-11-24T16:59:21.689Z,93274.66
2023-11-24T17:01:51.363Z,93175.22
2023-11-24T17:04:19.378Z,93283.44
2023-11-24T17:06:51.339Z,93243.88
2023-11-24T17:09:20.254Z,93242.22
2023-11-24T17:11:47.938Z,93226.13
2023-11-24T17:14:15.758Z,93276.16
2023-11-24T17:16:44.530Z,93262.25
2023-11-24T17:19:17.125Z,93269.72
2023-11-24T17:21:45.554Z,93236.94
2023-11-24T17:24:13.244Z,93260.31
2023-11-24T17:26:41.568Z,93267.56
2023-11-24T17:29:14.698Z,93209.81
2023-11-24T17:31:44.033Z,93252.94
2023-11-24T17:34:15.767Z,93238.31
2023-11-24T17:36:43.265Z,93247.91
2023-11-24T17:39:12.814Z,93236.34
2023-11-24T17:41:40.866Z,93248.22
2023-11-24T17:44:12.727Z,93234.81
2023-11-24T17:46:41.219Z,93243.78
2023-11-24T17:49:12.733Z,93205.44
2023-11-24T17:51:42.496Z,93203.69
2023-11-24T17:54:11.187Z,93188.41
2023-11-24T17:56:38.555Z,93221.19
2023-11-24T17:59:06.902Z,93203.22
2023-11-24T18:01:34.672Z,93195.78
2023-11-24T18:04:02.049Z,93156.03
2023-11-24T18:06:30.789Z,93192.16
2023-11-24T18:08:58.807Z,93173.91
2023-11-24T18:11:32.876Z,93187.75
2023-11-24T18:14:01.157Z,93173.81
2023-11-24T18:16:29.164Z,93167.69
2023-11-24T18:18:56.535Z,93148.53
2023-11-24T18:21:25.960Z,93165.50
2023-11-24T18:23:53.338Z,93156.78
2023-11-24T18:26:21.142Z,93141.25
2023-11-24T18:28:50.541Z,93143.53
2023-11-24T18:31:18.001Z,93149.59
2023-11-24T18:33:45.579Z,93142.97
2023-11-24T18:36:13.092Z,93134.47
2023-11-24T18:38:40.875Z,93118.53
2023-11-24T18:41:09.364Z,93127.09
2023-11-24T18:43:40.313Z,93107.25
2023-11-24T18:46:09.173Z,93112.53
2023-11-24T18:48:36.795Z,93091.97
2023-11-24T18:51:04.199Z,93101.06
2023-11-24T18:53:31.484Z,93129.38
2023-11-24T18:55:59.653Z,93120.06
2023-11-24T18:58:27.090Z,93118.06
2023-11-24T19:00:54.519Z,93127.28
2023-11-24T19:03:21.799Z,93096.94
2023-11-24T19:05:49.377Z,93094.28
2023-11-24T19:08:16.843Z,93102.63
2023-11-24T19:10:44.628Z,93100.25
2023-11-24T19:13:16.899Z,93088.75
2023-11-24T19:15:47.049Z,93074.56
2023-11-24T19:18:14.993Z,93081.41
2023-11-24T19:20:42.996Z,93078.25
2023-11-24T19:23:10.626Z,93085.56
2023-11-24T19:25:38.169Z,93051.91
2023-11-24T19:28:05.570Z,93060.69
2023-11-24T19:30:35.180Z,93086.91
2023-11-24T19:33:03.064Z,93077.97
2023-11-24T19:35:30.525Z,93082.16
2023-11-24T19:37:57.869Z,93078.16
2023-11-24T19:40:25.413Z,93046.47
2023-11-24T19:42:53.082Z,93071.41
2023-11-24T19:45:20.513Z,93066.44
2023-11-24T19:47:48.432Z,93059.59
2023-11-24T19:50:15.852Z,93062.88
2023-11-24T19:52:43.168Z,93073.03
2023-11-24T19:55:10.462Z,93064.88
2023-11-24T19:57:37.813Z,93065.41
2023-11-24T20:00:09.957Z,93074.25
2023-11-24T20:02:38.232Z,93058.25
2023-11-24T20:05:07.151Z,93062.84
2023-11-24T20:07:34.579Z,93048.13
2023-11-24T20:10:02.128Z,93055.84
2023-11-24T20:12:32.229Z,93046.66
2023-11-24T20:14:59.497Z,93028.00
2023-11-24T20:17:26.861Z,93045.81
2023-11-24T20:19:54.413Z,93035.00
2023-11-24T20:22:21.694Z,93036.88
2023-11-24T20:24:49.267Z,93025.06
2023-11-24T20:27:18.036Z,93038.22
2023-11-24T20:29:45.938Z,93043.16
2023-11-24T20:32:13.788Z,93007.03
2023-11-24T20:34:41.169Z,92972.59
2023-11-24T20:37:09.063Z,93011.91
2023-11-24T20:39:36.241Z,92994.44
2023-11-24T20:42:03.638Z,93005.81
2023-11-24T20:44:33.239Z,92995.59
2023-11-24T20:47:01.466Z,92994.34
2023-11-24T20:49:29.359Z,92971.97
2023-11-24T20:51:58.409Z,92961.44
2023-11-24T20:54:46.152Z,92985.56
2023-11-24T20:57:14.506Z,92983.38
2023-11-24T20:59:41.762Z,92982.38
2023-11-24T21:02:09.369Z,92981.59
2023-11-24T21:04:36.840Z,92983.88
2023-11-24T21:07:04.360Z,92996.75
2023-11-24T21:09:32.101Z,92991.28
2023-11-24T21:11:59.581Z,92978.56
2023-11-24T21:14:27.709Z,92967.19
2023-11-24T21:16:55.582Z,92958.66
2023-11-24T21:19:22.780Z,92954.03
2023-11-24T21:21:50.533Z,92970.94
2023-11-24T21:24:17.945Z,92979.34
2023-11-24T21:26:45.105Z,92975.09
2023-11-24T21:29:12.563Z,92968.78
2023-11-24T21:31:39.819Z,92959.69
2023-11-24T21:34:07.576Z,92969.47
2023-11-24T21:36:36.106Z,92968.38
2023-11-24T21:39:06.055Z,92942.78
2023-11-24T21:41:34.943Z,92955.63
2023-11-24T21:44:02.396Z,92933.59
2023-11-24T21:46:29.730Z,92949.50
2023-11-24T21:48:57.128Z,92940.78
2023-11-24T21:51:24.360Z,92933.69
2023-11-24T21:53:52.038Z,92937.72
2023-11-24T21:56:27.433Z,92932.88
2023-11-24T21:58:54.944Z,92936.41
2023-11-24T22:01:23.818Z,92932.78
2023-11-24T22:03:53.375Z,92933.53
2023-11-24T22:06:25.443Z,92938.50
2023-11-24T22:08:53.339Z,92935.38
2023-11-24T22:11:20.616Z,92927.44
2023-11-24T22:13:47.984Z,92936.66
2023-11-24T22:16:15.239Z,92921.53
2023-11-24T22:18:42.461Z,92939.56
2023-11-24T22:21:09.742Z,92914.59
2023-11-24T22:23:36.972Z,92900.97
2023-11-24T22:26:04.294Z,92897.88
2023-11-24T22:28:31.519Z,92911.78
2023-11-24T22:30:58.841Z,92905.69
2023-11-24T22:33:26.243Z,92911.00
2023-11-24T22:35:53.471Z,92901.75
2023-11-24T22:38:20.684Z,92877.28
2023-11-24T22:40:49.568Z,92880.72
2023-11-24T22:43:16.982Z,92877.91
2023-11-24T22:45:44.303Z,92866.81
2023-11-24T22:48:12.467Z,92851.75
2023-11-24T22:50:39.889Z,92808.19
2023-11-24T22:53:07.085Z,92860.63
2023-11-24T22:55:34.573Z,92837.75
2023-11-24T22:58:01.926Z,92823.75
2023-11-24T23:00:41.200Z,92811.78
2023-11-24T23:03:13.323Z,92790.03
2023-11-24T23:05:40.768Z,92798.22
2023-11-24T23:08:08.049Z,92810.34
2023-11-24T23:10:35.487Z,92798.56
2023-11-24T23:13:04.486Z,92793.84
2023-11-24T23:15:32.642Z,92793.66
2023-11-24T23:18:01.380Z,92783.94
2023-11-24T23:20:29.408Z,92774.13
2023-11-24T23:22:56.644Z,92777.78
2023-11-24T23:25:24.831Z,92766.81
2023-11-24T23:27:52.288Z,92739.16
2023-11-24T23:30:19.622Z,92764.50
2023-11-24T23:32:46.882Z,92767.41
2023-11-24T23:35:14.474Z,92747.13
2023-11-24T23:37:45.318Z,92754.69
2023-11-24T23:40:15.205Z,92755.44
2023-11-24T23:42:46.432Z,92749.00
2023-11-24T23:45:15.318Z,92739.91
2023-11-24T23:47:43.166Z,92756.63
2023-11-24T23:50:10.878Z,92746.13
2023-11-24T23:52:38.144Z,92743.13
2023-11-24T23:55:06.063Z,92754.56
2023-11-24T23:57:38.329Z,92728.63
